sensor_id;sensor_type;location;lat;lon;timestamp;P1;durP1;ratioP1;P2;durP2;ratioP2
30380;SDS011;17169;50.966;11.038;2023-05-23T00:01:17;10.60;;;7.03;;
30380;SDS011;17169;50.966;11.038;2023-05-23T00:04:20;8.85;;;6.20;;
30380;SDS011;17169;50.966;11.038;2023-05-23T00:07:26;8.10;;;6.45;;
30380;SDS011;17169;50.966;11.038;2023-05-23T00:10:28;10.30;;;6.18;;
30380;SDS011;17169;50.966;11.038;2023-05-23T00:13:32;8.05;;;6.28;;
30380;SDS011;17169;50.966;11.038;2023-05-23T00:16:35;8.00;;;6.20;;
30380;SDS011;17169;50.966;11.038;2023-05-23T00:19:40;10.52;;;6.30;;
30380;SDS011;17169;50.966;11.038;2023-05-23T00:22:45;13.15;;;6.45;;
30380;SDS011;17169;50.966;11.038;2023-05-23T00:25:47;12.45;;;6.65;;
30380;SDS011;17169;50.966;11.038;2023-05-23T00:28:53;9.90;;;6.55;;
30380;SDS011;17169;50.966;11.038;2023-05-23T00:31:55;11.20;;;6.28;;
30380;SDS011;17169;50.966;11.038;2023-05-23T00:34:58;11.73;;;6.60;;
30380;SDS011;17169;50.966;11.038;2023-05-23T00:38:00;8.07;;;6.55;;
30380;SDS011;17169;50.966;11.038;2023-05-23T00:41:02;10.07;;;6.57;;
30380;SDS011;17169;50.966;11.038;2023-05-23T00:44:06;9.43;;;5.75;;
30380;SDS011;17169;50.966;11.038;2023-05-23T00:47:09;9.82;;;6.82;;
30380;SDS011;17169;50.966;11.038;2023-05-23T00:50:13;11.85;;;6.35;;
30380;SDS011;17169;50.966;11.038;2023-05-23T00:53:16;10.80;;;7.05;;
30380;SDS011;17169;50.966;11.038;2023-05-23T00:56:19;10.07;;;6.18;;
30380;SDS011;17169;50.966;11.038;2023-05-23T00:59:23;8.50;;;6.35;;
30380;SDS011;17169;50.966;11.038;2023-05-23T01:02:26;8.13;;;6.78;;
30380;SDS011;17169;50.966;11.038;2023-05-23T01:05:31;11.40;;;7.05;;
30380;SDS011;17169;50.966;11.038;2023-05-23T01:08:34;10.43;;;7.75;;
30380;SDS011;17169;50.966;11.038;2023-05-23T01:11:37;12.18;;;7.80;;
30380;SDS011;17169;50.966;11.038;2023-05-23T01:14:46;9.07;;;7.55;;
30380;SDS011;17169;50.966;11.038;2023-05-23T01:17:58;8.95;;;7.60;;
30380;SDS011;17169;50.966;11.038;2023-05-23T01:21:05;11.25;;;7.95;;
30380;SDS011;17169;50.966;11.038;2023-05-23T01:24:15;12.25;;;8.18;;
30380;SDS011;17169;50.966;11.038;2023-05-23T01:27:41;12.60;;;7.75;;
30380;SDS011;17169;50.966;11.038;2023-05-23T01:30:50;12.10;;;7.78;;
30380;SDS011;17169;50.966;11.038;2023-05-23T01:33:54;12.55;;;7.60;;
30380;SDS011;17169;50.966;11.038;2023-05-23T01:36:57;8.45;;;7.13;;
30380;SDS011;17169;50.966;11.038;2023-05-23T01:39:59;15.75;;;7.55;;
30380;SDS011;17169;50.966;11.038;2023-05-23T01:43:03;11.52;;;7.13;;
30380;SDS011;17169;50.966;11.038;2023-05-23T01:46:05;10.68;;;7.40;;
30380;SDS011;17169;50.966;11.038;2023-05-23T01:49:10;11.10;;;7.10;;
30380;SDS011;17169;50.966;11.038;2023-05-23T01:52:14;9.40;;;6.63;;
30380;SDS011;17169;50.966;11.038;2023-05-23T01:55:17;10.35;;;7.47;;
30380;SDS011;17169;50.966;11.038;2023-05-23T01:58:23;10.32;;;7.07;;
30380;SDS011;17169;50.966;11.038;2023-05-23T02:01:25;9.65;;;6.82;;
30380;SDS011;17169;50.966;11.038;2023-05-23T02:04:28;13.50;;;7.55;;
30380;SDS011;17169;50.966;11.038;2023-05-23T02:07:31;13.95;;;7.75;;
30380;SDS011;17169;50.966;11.038;2023-05-23T02:10:33;12.75;;;7.18;;
30380;SDS011;17169;50.966;11.038;2023-05-23T02:13:37;8.77;;;6.95;;
30380;SDS011;17169;50.966;11.038;2023-05-23T02:16:40;10.48;;;7.68;;
30380;SDS011;17169;50.966;11.038;2023-05-23T02:19:42;10.77;;;7.82;;
30380;SDS011;17169;50.966;11.038;2023-05-23T02:22:45;10.52;;;8.10;;
30380;SDS011;17169;50.966;11.038;2023-05-23T02:25:47;11.35;;;7.38;;
30380;SDS011;17169;50.966;11.038;2023-05-23T02:28:51;14.25;;;8.15;;
30380;SDS011;17169;50.966;11.038;2023-05-23T02:31:53;12.15;;;7.72;;
30380;SDS011;17169;50.966;11.038;2023-05-23T02:34:56;12.38;;;7.97;;
30380;SDS011;17169;50.966;11.038;2023-05-23T02:37:59;12.07;;;7.70;;
30380;SDS011;17169;50.966;11.038;2023-05-23T02:41:01;19.13;;;7.93;;
30380;SDS011;17169;50.966;11.038;2023-05-23T02:44:05;13.85;;;7.82;;
30380;SDS011;17169;50.966;11.038;2023-05-23T02:47:08;11.77;;;8.07;;
30380;SDS011;17169;50.966;11.038;2023-05-23T02:50:10;11.82;;;8.18;;
30380;SDS011;17169;50.966;11.038;2023-05-23T02:53:12;12.73;;;7.93;;
30380;SDS011;17169;50.966;11.038;2023-05-23T02:56:15;13.32;;;7.82;;
30380;SDS011;17169;50.966;11.038;2023-05-23T02:59:19;12.05;;;9.02;;
30380;SDS011;17169;50.966;11.038;2023-05-23T03:02:22;16.73;;;9.27;;
30380;SDS011;17169;50.966;11.038;2023-05-23T03:05:25;11.73;;;9.07;;
30380;SDS011;17169;50.966;11.038;2023-05-23T03:08:27;12.68;;;9.48;;
30380;SDS011;17169;50.966;11.038;2023-05-23T03:11:30;16.35;;;9.10;;
30380;SDS011;17169;50.966;11.038;2023-05-23T03:14:33;15.57;;;9.52;;
30380;SDS011;17169;50.966;11.038;2023-05-23T03:17:36;14.40;;;9.85;;
30380;SDS011;17169;50.966;11.038;2023-05-23T03:20:38;11.70;;;9.57;;
30380;SDS011;17169;50.966;11.038;2023-05-23T03:23:41;15.65;;;9.20;;
30380;SDS011;17169;50.966;11.038;2023-05-23T03:26:43;12.73;;;9.38;;
30380;SDS011;17169;50.966;11.038;2023-05-23T03:29:47;14.60;;;8.80;;
30380;SDS011;17169;50.966;11.038;2023-05-23T03:32:49;13.18;;;9.38;;
30380;SDS011;17169;50.966;11.038;2023-05-23T03:35:53;13.73;;;8.90;;
30380;SDS011;17169;50.966;11.038;2023-05-23T03:38:57;13.73;;;10.38;;
30380;SDS011;17169;50.966;11.038;2023-05-23T03:41:59;12.75;;;9.48;;
30380;SDS011;17169;50.966;11.038;2023-05-23T03:45:03;13.93;;;10.48;;
30380;SDS011;17169;50.966;11.038;2023-05-23T03:48:06;14.75;;;9.68;;
30380;SDS011;17169;50.966;11.038;2023-05-23T03:51:09;13.60;;;10.15;;
30380;SDS011;17169;50.966;11.038;2023-05-23T03:54:12;16.27;;;9.98;;
30380;SDS011;17169;50.966;11.038;2023-05-23T03:57:17;15.98;;;10.05;;
30380;SDS011;17169;50.966;11.038;2023-05-23T04:00:20;14.35;;;11.18;;
30380;SDS011;17169;50.966;11.038;2023-05-23T04:03:23;13.73;;;10.00;;
30380;SDS011;17169;50.966;11.038;2023-05-23T04:06:25;15.70;;;10.52;;
30380;SDS011;17169;50.966;11.038;2023-05-23T04:12:32;19.70;;;11.48;;
30380;SDS011;17169;50.966;11.038;2023-05-23T04:15:36;18.90;;;11.52;;
30380;SDS011;17169;50.966;11.038;2023-05-23T04:18:39;18.88;;;12.75;;
30380;SDS011;17169;50.966;11.038;2023-05-23T04:21:42;18.17;;;11.75;;
30380;SDS011;17169;50.966;11.038;2023-05-23T04:24:45;21.33;;;15.18;;
30380;SDS011;17169;50.966;11.038;2023-05-23T04:27:47;22.75;;;16.83;;
30380;SDS011;17169;50.966;11.038;2023-05-23T04:30:51;19.80;;;12.27;;
30380;SDS011;17169;50.966;11.038;2023-05-23T04:33:53;19.33;;;12.52;;
30380;SDS011;17169;50.966;11.038;2023-05-23T04:36:55;17.83;;;13.15;;
30380;SDS011;17169;50.966;11.038;2023-05-23T04:39:58;18.90;;;13.20;;
30380;SDS011;17169;50.966;11.038;2023-05-23T04:43:00;21.95;;;13.10;;
30380;SDS011;17169;50.966;11.038;2023-05-23T04:46:04;19.80;;;12.90;;
30380;SDS011;17169;50.966;11.038;2023-05-23T04:49:08;20.92;;;12.02;;
30380;SDS011;17169;50.966;11.038;2023-05-23T04:52:10;17.63;;;12.80;;
30380;SDS011;17169;50.966;11.038;2023-05-23T04:55:12;20.05;;;14.02;;
30380;SDS011;17169;50.966;11.038;2023-05-23T04:58:15;18.40;;;13.25;;
30380;SDS011;17169;50.966;11.038;2023-05-23T05:01:19;20.55;;;13.90;;
30380;SDS011;17169;50.966;11.038;2023-05-23T05:04:23;22.10;;;13.90;;
30380;SDS011;17169;50.966;11.038;2023-05-23T05:07:26;19.92;;;12.57;;
30380;SDS011;17169;50.966;11.038;2023-05-23T05:10:29;16.17;;;12.80;;
30380;SDS011;17169;50.966;11.038;2023-05-23T05:13:32;18.48;;;12.32;;
30380;SDS011;17169;50.966;11.038;2023-05-23T05:16:35;18.33;;;11.80;;
30380;SDS011;17169;50.966;11.038;2023-05-23T05:19:38;19.33;;;12.40;;
30380;SDS011;17169;50.966;11.038;2023-05-23T05:22:40;17.08;;;12.45;;
30380;SDS011;17169;50.966;11.038;2023-05-23T05:25:43;20.88;;;11.30;;
30380;SDS011;17169;50.966;11.038;2023-05-23T05:28:45;21.10;;;12.75;;
30380;SDS011;17169;50.966;11.038;2023-05-23T05:31:49;16.33;;;11.73;;
30380;SDS011;17169;50.966;11.038;2023-05-23T05:34:52;15.30;;;10.90;;
30380;SDS011;17169;50.966;11.038;2023-05-23T05:37:55;13.90;;;10.23;;
30380;SDS011;17169;50.966;11.038;2023-05-23T05:40:57;17.00;;;10.27;;
30380;SDS011;17169;50.966;11.038;2023-05-23T05:43:59;17.30;;;10.40;;
30380;SDS011;17169;50.966;11.038;2023-05-23T05:47:03;17.17;;;8.93;;
30380;SDS011;17169;50.966;11.038;2023-05-23T05:50:06;14.40;;;8.70;;
30380;SDS011;17169;50.966;11.038;2023-05-23T05:53:10;17.45;;;9.60;;
30380;SDS011;17169;50.966;11.038;2023-05-23T05:56:13;14.60;;;9.10;;
30380;SDS011;17169;50.966;11.038;2023-05-23T05:59:15;14.18;;;8.45;;
30380;SDS011;17169;50.966;11.038;2023-05-23T06:02:19;13.43;;;8.98;;
30380;SDS011;17169;50.966;11.038;2023-05-23T06:05:21;10.20;;;7.78;;
30380;SDS011;17169;50.966;11.038;2023-05-23T06:08:24;12.93;;;8.45;;
30380;SDS011;17169;50.966;11.038;2023-05-23T06:11:26;14.05;;;8.00;;
30380;SDS011;17169;50.966;11.038;2023-05-23T06:14:29;11.63;;;7.55;;
30380;SDS011;17169;50.966;11.038;2023-05-23T06:17:32;10.93;;;7.43;;
30380;SDS011;17169;50.966;11.038;2023-05-23T06:20:35;15.73;;;7.75;;
30380;SDS011;17169;50.966;11.038;2023-05-23T06:23:37;15.70;;;6.75;;
30380;SDS011;17169;50.966;11.038;2023-05-23T06:26:40;11.25;;;7.00;;
30380;SDS011;17169;50.966;11.038;2023-05-23T06:29:42;9.98;;;6.55;;
30380;SDS011;17169;50.966;11.038;2023-05-23T06:32:46;16.50;;;6.82;;
30380;SDS011;17169;50.966;11.038;2023-05-23T06:35:48;11.68;;;5.55;;
30380;SDS011;17169;50.966;11.038;2023-05-23T06:38:50;11.35;;;5.85;;
30380;SDS011;17169;50.966;11.038;2023-05-23T06:41:53;7.07;;;4.97;;
30380;SDS011;17169;50.966;11.038;2023-05-23T06:44:55;9.57;;;4.50;;
30380;SDS011;17169;50.966;11.038;2023-05-23T06:48:00;8.45;;;5.03;;
30380;SDS011;17169;50.966;11.038;2023-05-23T06:51:02;7.72;;;4.35;;
30380;SDS011;17169;50.966;11.038;2023-05-23T06:54:05;6.97;;;4.25;;
30380;SDS011;17169;50.966;11.038;2023-05-23T06:57:07;6.80;;;3.95;;
30380;SDS011;17169;50.966;11.038;2023-05-23T07:00:10;6.65;;;4.45;;
30380;SDS011;17169;50.966;11.038;2023-05-23T07:03:15;7.10;;;4.20;;
30380;SDS011;17169;50.966;11.038;2023-05-23T07:06:18;7.30;;;4.60;;
30380;SDS011;17169;50.966;11.038;2023-05-23T07:09:20;6.63;;;4.30;;
30380;SDS011;17169;50.966;11.038;2023-05-23T07:12:22;9.38;;;4.50;;
30380;SDS011;17169;50.966;11.038;2023-05-23T07:15:25;8.32;;;4.97;;
30380;SDS011;17169;50.966;11.038;2023-05-23T07:18:29;6.65;;;4.88;;
30380;SDS011;17169;50.966;11.038;2023-05-23T07:21:31;8.50;;;4.50;;
30380;SDS011;17169;50.966;11.038;2023-05-23T07:24:33;6.82;;;4.45;;
30380;SDS011;17169;50.966;11.038;2023-05-23T07:27:36;6.90;;;4.80;;
30380;SDS011;17169;50.966;11.038;2023-05-23T07:30:39;9.30;;;4.72;;
30380;SDS011;17169;50.966;11.038;2023-05-23T07:33:43;7.97;;;4.50;;
30380;SDS011;17169;50.966;11.038;2023-05-23T07:36:45;6.60;;;4.10;;
30380;SDS011;17169;50.966;11.038;2023-05-23T07:39:49;8.32;;;4.68;;
30380;SDS011;17169;50.966;11.038;2023-05-23T07:42:52;7.10;;;4.10;;
30380;SDS011;17169;50.966;11.038;2023-05-23T07:45:55;6.40;;;3.17;;
30380;SDS011;17169;50.966;11.038;2023-05-23T07:48:59;5.68;;;3.25;;
30380;SDS011;17169;50.966;11.038;2023-05-23T07:52:01;6.30;;;3.17;;
30380;SDS011;17169;50.966;11.038;2023-05-23T07:55:04;6.13;;;3.33;;
30380;SDS011;17169;50.966;11.038;2023-05-23T07:58:07;5.75;;;2.83;;
30380;SDS011;17169;50.966;11.038;2023-05-23T08:01:10;7.55;;;3.00;;
30380;SDS011;17169;50.966;11.038;2023-05-23T08:04:13;7.95;;;3.90;;
30380;SDS011;17169;50.966;11.038;2023-05-23T08:07:16;5.05;;;3.05;;
30380;SDS011;17169;50.966;11.038;2023-05-23T08:10:18;4.90;;;2.92;;
30380;SDS011;17169;50.966;11.038;2023-05-23T08:13:20;8.00;;;2.70;;
30380;SDS011;17169;50.966;11.038;2023-05-23T08:16:23;6.18;;;3.83;;
30380;SDS011;17169;50.966;11.038;2023-05-23T08:19:27;4.78;;;3.45;;
30380;SDS011;17169;50.966;11.038;2023-05-23T08:22:29;3.97;;;2.90;;
30380;SDS011;17169;50.966;11.038;2023-05-23T08:25:32;5.32;;;2.70;;
30380;SDS011;17169;50.966;11.038;2023-05-23T08:28:34;9.05;;;2.50;;
30380;SDS011;17169;50.966;11.038;2023-05-23T08:31:37;6.70;;;2.55;;
30380;SDS011;17169;50.966;11.038;2023-05-23T08:34:40;5.55;;;2.55;;
30380;SDS011;17169;50.966;11.038;2023-05-23T08:37:43;7.43;;;3.05;;
30380;SDS011;17169;50.966;11.038;2023-05-23T08:40:48;3.30;;;2.20;;
30380;SDS011;17169;50.966;11.038;2023-05-23T08:43:51;4.53;;;2.83;;
30380;SDS011;17169;50.966;11.038;2023-05-23T08:46:54;6.25;;;3.10;;
30380;SDS011;17169;50.966;11.038;2023-05-23T08:49:59;4.13;;;2.60;;
30380;SDS011;17169;50.966;11.038;2023-05-23T08:56:08;6.82;;;2.28;;
30380;SDS011;17169;50.966;11.038;2023-05-23T08:59:10;5.53;;;2.90;;
30380;SDS011;17169;50.966;11.038;2023-05-23T09:02:15;4.10;;;2.50;;
30380;SDS011;17169;50.966;11.038;2023-05-23T09:05:20;5.68;;;2.53;;
30380;SDS011;17169;50.966;11.038;2023-05-23T09:08:23;5.18;;;2.80;;
30380;SDS011;17169;50.966;11.038;2023-05-23T09:11:25;3.55;;;2.53;;
30380;SDS011;17169;50.966;11.038;2023-05-23T09:14:27;4.05;;;2.25;;
30380;SDS011;17169;50.966;11.038;2023-05-23T09:17:31;3.88;;;2.47;;
30380;SDS011;17169;50.966;11.038;2023-05-23T09:20:36;5.32;;;2.58;;
30380;SDS011;17169;50.966;11.038;2023-05-23T09:23:41;5.55;;;2.80;;
30380;SDS011;17169;50.966;11.038;2023-05-23T09:26:45;5.80;;;2.70;;
30380;SDS011;17169;50.966;11.038;2023-05-23T09:29:48;3.50;;;2.33;;
30380;SDS011;17169;50.966;11.038;2023-05-23T09:32:57;6.10;;;3.15;;
30380;SDS011;17169;50.966;11.038;2023-05-23T09:36:03;4.63;;;2.80;;
30380;SDS011;17169;50.966;11.038;2023-05-23T09:39:06;5.60;;;3.45;;
30380;SDS011;17169;50.966;11.038;2023-05-23T09:42:08;5.07;;;2.97;;
30380;SDS011;17169;50.966;11.038;2023-05-23T09:45:11;6.18;;;3.15;;
30380;SDS011;17169;50.966;11.038;2023-05-23T09:48:13;6.07;;;3.25;;
30380;SDS011;17169;50.966;11.038;2023-05-23T09:51:18;5.50;;;3.47;;
30380;SDS011;17169;50.966;11.038;2023-05-23T09:54:21;5.43;;;3.15;;
30380;SDS011;17169;50.966;11.038;2023-05-23T09:57:24;4.60;;;3.17;;
30380;SDS011;17169;50.966;11.038;2023-05-23T10:00:26;6.07;;;3.45;;
30380;SDS011;17169;50.966;11.038;2023-05-23T10:03:30;4.50;;;3.22;;
30380;SDS011;17169;50.966;11.038;2023-05-23T10:06:40;6.30;;;3.42;;
30380;SDS011;17169;50.966;11.038;2023-05-23T10:09:46;5.30;;;3.40;;
30380;SDS011;17169;50.966;11.038;2023-05-23T10:12:55;5.32;;;3.35;;
30380;SDS011;17169;50.966;11.038;2023-05-23T10:19:06;3.90;;;2.55;;
30380;SDS011;17169;50.966;11.038;2023-05-23T10:22:15;5.38;;;3.33;;
30380;SDS011;17169;50.966;11.038;2023-05-23T10:25:17;5.72;;;3.40;;
30380;SDS011;17169;50.966;11.038;2023-05-23T10:28:20;5.00;;;3.30;;
30380;SDS011;17169;50.966;11.038;2023-05-23T10:31:24;8.63;;;3.55;;
30380;SDS011;17169;50.966;11.038;2023-05-23T10:34:28;5.57;;;3.35;;
30380;SDS011;17169;50.966;11.038;2023-05-23T10:37:37;5.82;;;3.08;;
30380;SDS011;17169;50.966;11.038;2023-05-23T10:40:45;5.82;;;3.00;;
30380;SDS011;17169;50.966;11.038;2023-05-23T10:43:54;7.50;;;2.97;;
30380;SDS011;17169;50.966;11.038;2023-05-23T10:47:03;5.00;;;2.85;;
30380;SDS011;17169;50.966;11.038;2023-05-23T10:50:06;5.13;;;2.65;;
30380;SDS011;17169;50.966;11.038;2023-05-23T10:53:14;4.50;;;2.80;;
30380;SDS011;17169;50.966;11.038;2023-05-23T10:56:20;3.92;;;2.53;;
30380;SDS011;17169;50.966;11.038;2023-05-23T10:59:23;4.25;;;3.00;;
30380;SDS011;17169;50.966;11.038;2023-05-23T11:02:28;5.68;;;2.70;;
30380;SDS011;17169;50.966;11.038;2023-05-23T11:05:31;5.45;;;2.72;;
30380;SDS011;17169;50.966;11.038;2023-05-23T11:08:39;5.30;;;2.58;;
30380;SDS011;17169;50.966;11.038;2023-05-23T11:11:54;3.47;;;2.30;;
30380;SDS011;17169;50.966;11.038;2023-05-23T11:15:00;4.53;;;2.65;;
30380;SDS011;17169;50.966;11.038;2023-05-23T11:18:03;3.22;;;2.22;;
30380;SDS011;17169;50.966;11.038;2023-05-23T11:21:07;3.17;;;2.00;;
30380;SDS011;17169;50.966;11.038;2023-05-23T11:24:11;3.17;;;2.20;;
30380;SDS011;17169;50.966;11.038;2023-05-23T11:27:14;4.38;;;2.30;;
30380;SDS011;17169;50.966;11.038;2023-05-23T11:30:19;4.07;;;2.45;;
30380;SDS011;17169;50.966;11.038;2023-05-23T11:33:21;3.75;;;2.22;;
30380;SDS011;17169;50.966;11.038;2023-05-23T11:36:24;3.30;;;1.85;;
30380;SDS011;17169;50.966;11.038;2023-05-23T11:39:28;2.75;;;1.50;;
30380;SDS011;17169;50.966;11.038;2023-05-23T11:42:30;3.40;;;1.90;;
30380;SDS011;17169;50.966;11.038;2023-05-23T11:45:33;5.25;;;1.48;;
30380;SDS011;17169;50.966;11.038;2023-05-23T11:48:37;2.25;;;1.40;;
30380;SDS011;17169;50.966;11.038;2023-05-23T11:51:45;2.20;;;1.48;;
30380;SDS011;17169;50.966;11.038;2023-05-23T11:54:49;4.28;;;1.13;;
30380;SDS011;17169;50.966;11.038;2023-05-23T11:57:54;2.47;;;1.10;;
30380;SDS011;17169;50.966;11.038;2023-05-23T12:00:57;2.00;;;1.13;;
30380;SDS011;17169;50.966;11.038;2023-05-23T12:04:07;2.50;;;1.35;;
30380;SDS011;17169;50.966;11.038;2023-05-23T12:07:11;3.65;;;1.35;;
30380;SDS011;17169;50.966;11.038;2023-05-23T12:10:15;2.28;;;1.50;;
30380;SDS011;17169;50.966;11.038;2023-05-23T12:13:22;2.80;;;1.23;;
30380;SDS011;17169;50.966;11.038;2023-05-23T12:16:26;3.00;;;1.20;;
30380;SDS011;17169;50.966;11.038;2023-05-23T12:19:29;2.60;;;1.50;;
30380;SDS011;17169;50.966;11.038;2023-05-23T12:22:31;1.65;;;1.00;;
30380;SDS011;17169;50.966;11.038;2023-05-23T12:25:38;3.08;;;1.50;;
30380;SDS011;17169;50.966;11.038;2023-05-23T12:28:42;5.43;;;1.20;;
30380;SDS011;17169;50.966;11.038;2023-05-23T12:31:49;4.77;;;1.37;;
30380;SDS011;17169;50.966;11.038;2023-05-23T12:34:52;2.60;;;1.35;;
30380;SDS011;17169;50.966;11.038;2023-05-23T12:37:55;3.25;;;1.60;;
30380;SDS011;17169;50.966;11.038;2023-05-23T12:41:09;3.13;;;1.38;;
30380;SDS011;17169;50.966;11.038;2023-05-23T12:44:14;4.70;;;2.65;;
30380;SDS011;17169;50.966;11.038;2023-05-23T12:47:17;5.30;;;2.08;;
30380;SDS011;17169;50.966;11.038;2023-05-23T12:50:20;3.50;;;2.10;;
30380;SDS011;17169;50.966;11.038;2023-05-23T12:53:22;4.25;;;2.28;;
30380;SDS011;17169;50.966;11.038;2023-05-23T12:56:26;5.07;;;2.13;;
30380;SDS011;17169;50.966;11.038;2023-05-23T12:59:28;4.80;;;1.90;;
30380;SDS011;17169;50.966;11.038;2023-05-23T13:02:30;3.30;;;1.45;;
30380;SDS011;17169;50.966;11.038;2023-05-23T13:05:33;3.03;;;1.65;;
30380;SDS011;17169;50.966;11.038;2023-05-23T13:08:36;5.07;;;1.40;;
30380;SDS011;17169;50.966;11.038;2023-05-23T13:11:40;6.03;;;2.20;;
30380;SDS011;17169;50.966;11.038;2023-05-23T13:14:42;2.65;;;1.50;;
30380;SDS011;17169;50.966;11.038;2023-05-23T13:17:44;6.82;;;2.30;;
30380;SDS011;17169;50.966;11.038;2023-05-23T13:20:47;4.05;;;2.00;;
30380;SDS011;17169;50.966;11.038;2023-05-23T13:23:50;3.13;;;1.88;;
30380;SDS011;17169;50.966;11.038;2023-05-23T13:26:54;4.35;;;1.90;;
30380;SDS011;17169;50.966;11.038;2023-05-23T13:29:56;3.40;;;1.95;;
30380;SDS011;17169;50.966;11.038;2023-05-23T13:32:59;4.80;;;2.13;;
30380;SDS011;17169;50.966;11.038;2023-05-23T13:36:01;4.05;;;1.80;;
30380;SDS011;17169;50.966;11.038;2023-05-23T13:39:04;6.70;;;1.80;;
30380;SDS011;17169;50.966;11.038;2023-05-23T13:42:08;1.55;;;1.13;;
30380;SDS011;17169;50.966;11.038;2023-05-23T13:45:11;2.05;;;1.30;;
30380;SDS011;17169;50.966;11.038;2023-05-23T13:48:14;2.25;;;1.23;;
30380;SDS011;17169;50.966;11.038;2023-05-23T13:51:16;2.25;;;1.23;;
30380;SDS011;17169;50.966;11.038;2023-05-23T13:54:18;2.53;;;1.30;;
30380;SDS011;17169;50.966;11.038;2023-05-23T13:57:23;2.88;;;1.33;;
30380;SDS011;17169;50.966;11.038;2023-05-23T14:00:25;3.85;;;1.60;;
30380;SDS011;17169;50.966;11.038;2023-05-23T14:03:28;2.83;;;1.60;;
30380;SDS011;17169;50.966;11.038;2023-05-23T14:06:30;3.70;;;2.05;;
30380;SDS011;17169;50.966;11.038;2023-05-23T14:09:33;2.72;;;1.58;;
30380;SDS011;17169;50.966;11.038;2023-05-23T14:12:37;2.10;;;1.40;;
30380;SDS011;17169;50.966;11.038;2023-05-23T14:15:39;3.22;;;1.77;;
30380;SDS011;17169;50.966;11.038;2023-05-23T14:18:42;3.40;;;1.83;;
30380;SDS011;17169;50.966;11.038;2023-05-23T14:21:44;6.40;;;2.00;;
30380;SDS011;17169;50.966;11.038;2023-05-23T14:24:46;4.43;;;2.38;;
30380;SDS011;17169;50.966;11.038;2023-05-23T14:27:50;5.18;;;2.20;;
30380;SDS011;17169;50.966;11.038;2023-05-23T14:30:53;5.80;;;2.80;;
30380;SDS011;17169;50.966;11.038;2023-05-23T14:33:56;3.70;;;2.55;;
30380;SDS011;17169;50.966;11.038;2023-05-23T14:36:59;5.13;;;2.72;;
30380;SDS011;17169;50.966;11.038;2023-05-23T14:40:01;6.60;;;3.10;;
30380;SDS011;17169;50.966;11.038;2023-05-23T14:43:05;7.10;;;3.28;;
30380;SDS011;17169;50.966;11.038;2023-05-23T14:46:08;5.97;;;3.15;;
30380;SDS011;17169;50.966;11.038;2023-05-23T14:49:10;6.53;;;3.30;;
30380;SDS011;17169;50.966;11.038;2023-05-23T14:52:13;9.18;;;4.10;;
30380;SDS011;17169;50.966;11.038;2023-05-23T14:55:15;9.27;;;3.63;;
30380;SDS011;17169;50.966;11.038;2023-05-23T14:58:19;6.25;;;3.25;;
30380;SDS011;17169;50.966;11.038;2023-05-23T15:01:22;5.43;;;3.10;;
30380;SDS011;17169;50.966;11.038;2023-05-23T15:04:24;8.73;;;3.47;;
30380;SDS011;17169;50.966;11.038;2023-05-23T15:07:27;5.78;;;3.42;;
30380;SDS011;17169;50.966;11.038;2023-05-23T15:10:29;7.47;;;4.18;;
30380;SDS011;17169;50.966;11.038;2023-05-23T15:13:33;7.35;;;4.13;;
30380;SDS011;17169;50.966;11.038;2023-05-23T15:16:35;5.13;;;4.05;;
30380;SDS011;17169;50.966;11.038;2023-05-23T15:19:38;6.43;;;4.28;;
30380;SDS011;17169;50.966;11.038;2023-05-23T15:22:42;6.32;;;3.65;;
30380;SDS011;17169;50.966;11.038;2023-05-23T15:25:44;6.82;;;4.15;;
30380;SDS011;17169;50.966;11.038;2023-05-23T15:28:48;8.50;;;4.45;;
30380;SDS011;17169;50.966;11.038;2023-05-23T15:31:50;8.10;;;4.38;;
30380;SDS011;17169;50.966;11.038;2023-05-23T15:34:53;10.60;;;4.35;;
30380;SDS011;17169;50.966;11.038;2023-05-23T15:37:55;7.50;;;4.82;;
30380;SDS011;17169;50.966;11.038;2023-05-23T15:40:57;6.32;;;4.10;;
30380;SDS011;17169;50.966;11.038;2023-05-23T15:44:02;6.75;;;4.65;;
30380;SDS011;17169;50.966;11.038;2023-05-23T15:47:05;6.90;;;4.15;;
30380;SDS011;17169;50.966;11.038;2023-05-23T15:50:07;9.07;;;3.83;;
30380;SDS011;17169;50.966;11.038;2023-05-23T15:53:10;8.35;;;4.00;;
30380;SDS011;17169;50.966;11.038;2023-05-23T15:56:13;6.95;;;3.80;;
30380;SDS011;17169;50.966;11.038;2023-05-23T15:59:17;8.32;;;4.78;;
30380;SDS011;17169;50.966;11.038;2023-05-23T16:02:19;9.75;;;5.28;;
30380;SDS011;17169;50.966;11.038;2023-05-23T16:05:21;8.52;;;4.40;;
30380;SDS011;17169;50.966;11.038;2023-05-23T16:08:24;13.93;;;5.00;;
30380;SDS011;17169;50.966;11.038;2023-05-23T16:11:26;8.48;;;4.13;;
30380;SDS011;17169;50.966;11.038;2023-05-23T16:14:30;8.60;;;4.72;;
30380;SDS011;17169;50.966;11.038;2023-05-23T16:17:32;8.32;;;4.25;;
30380;SDS011;17169;50.966;11.038;2023-05-23T16:20:35;10.98;;;4.20;;
30380;SDS011;17169;50.966;11.038;2023-05-23T16:23:37;10.27;;;4.20;;
30380;SDS011;17169;50.966;11.038;2023-05-23T16:26:39;6.63;;;3.80;;
30380;SDS011;17169;50.966;11.038;2023-05-23T16:29:43;12.68;;;4.88;;
30380;SDS011;17169;50.966;11.038;2023-05-23T16:32:45;9.23;;;3.97;;
30380;SDS011;17169;50.966;11.038;2023-05-23T16:35:48;9.50;;;3.80;;
30380;SDS011;17169;50.966;11.038;2023-05-23T16:38:50;14.80;;;4.35;;
30380;SDS011;17169;50.966;11.038;2023-05-23T16:41:52;8.90;;;4.38;;
30380;SDS011;17169;50.966;11.038;2023-05-23T16:44:56;10.30;;;4.07;;
30380;SDS011;17169;50.966;11.038;2023-05-23T16:47:59;11.60;;;4.45;;
30380;SDS011;17169;50.966;11.038;2023-05-23T16:51:01;14.65;;;4.03;;
30380;SDS011;17169;50.966;11.038;2023-05-23T16:54:03;12.43;;;4.15;;
30380;SDS011;17169;50.966;11.038;2023-05-23T16:57:06;13.10;;;3.90;;
30380;SDS011;17169;50.966;11.038;2023-05-23T17:00:10;9.77;;;3.70;;
30380;SDS011;17169;50.966;11.038;2023-05-23T17:06:15;12.32;;;3.60;;
30380;SDS011;17169;50.966;11.038;2023-05-23T17:09:18;7.88;;;3.10;;
30380;SDS011;17169;50.966;11.038;2023-05-23T17:12:21;22.60;;;3.85;;
30380;SDS011;17169;50.966;11.038;2023-05-23T17:15:25;19.08;;;4.03;;
30380;SDS011;17169;50.966;11.038;2023-05-23T17:18:27;11.00;;;3.83;;
30380;SDS011;17169;50.966;11.038;2023-05-23T17:21:30;12.50;;;3.60;;
30380;SDS011;17169;50.966;11.038;2023-05-23T17:24:33;7.63;;;3.70;;
30380;SDS011;17169;50.966;11.038;2023-05-23T17:27:36;10.63;;;3.65;;
30380;SDS011;17169;50.966;11.038;2023-05-23T17:30:39;13.90;;;3.60;;
30380;SDS011;17169;50.966;11.038;2023-05-23T17:33:42;11.73;;;3.20;;
30380;SDS011;17169;50.966;11.038;2023-05-23T17:36:45;13.70;;;3.85;;
30380;SDS011;17169;50.966;11.038;2023-05-23T17:39:48;13.55;;;3.67;;
30380;SDS011;17169;50.966;11.038;2023-05-23T17:42:50;11.65;;;3.45;;
30380;SDS011;17169;50.966;11.038;2023-05-23T17:45:54;11.27;;;3.13;;
30380;SDS011;17169;50.966;11.038;2023-05-23T17:48:57;9.05;;;3.30;;
30380;SDS011;17169;50.966;11.038;2023-05-23T17:51:59;11.93;;;3.95;;
30380;SDS011;17169;50.966;11.038;2023-05-23T17:55:04;12.05;;;3.60;;
30380;SDS011;17169;50.966;11.038;2023-05-23T17:58:07;10.48;;;3.15;;
30380;SDS011;17169;50.966;11.038;2023-05-23T18:01:11;12.95;;;3.35;;
30380;SDS011;17169;50.966;11.038;2023-05-23T18:04:13;12.95;;;3.70;;
30380;SDS011;17169;50.966;11.038;2023-05-23T18:07:16;11.57;;;3.60;;
30380;SDS011;17169;50.966;11.038;2023-05-23T18:10:18;15.88;;;3.72;;
30380;SDS011;17169;50.966;11.038;2023-05-23T18:13:21;11.90;;;3.90;;